createdAt,value
2018-03-20T00:01:12.735Z,45.10
2018-03-20T00:03:46.749Z,45.10
2018-03-20T00:06:22.189Z,45.70
2018-03-20T00:08:56.196Z,44.70
2018-03-20T00:11:29.989Z,45.10
2018-03-20T00:14:09.512Z,45.70
2018-03-20T00:16:43.876Z,44.60
2018-03-20T00:19:17.624Z,45.10
2018-03-20T00:21:51.392Z,45.00
2018-03-20T00:24:25.434Z,44.60
2018-03-20T00:26:59.912Z,44.90
2018-03-20T00:29:34.030Z,44.20
2018-03-20T00:32:07.970Z,44.20
2018-03-20T00:34:42.618Z,44.30
2018-03-20T00:37:16.818Z,43.70
2018-03-20T00:39:50.618Z,43.20
2018-03-20T00:42:25.253Z,43.70
2018-03-20T00:45:00.265Z,44.20
2018-03-20T00:47:34.218Z,43.80
2018-03-20T00:50:08.753Z,44.20
2018-03-20T00:52:42.737Z,43.60
2018-03-20T00:55:16.398Z,44.00
2018-03-20T00:57:50.773Z,43.80
2018-03-20T01:00:25.222Z,43.80
2018-03-20T01:03:00.059Z,44.50
2018-03-20T01:05:33.862Z,44.10
2018-03-20T01:08:08.413Z,44.10
2018-03-20T01:10:42.199Z,44.00
2018-03-20T01:13:17.014Z,47.00
2018-03-20T01:15:51.251Z,47.00
2018-03-20T01:18:25.264Z,48.00
2018-03-20T01:20:59.878Z,52.30
2018-03-20T01:23:34.666Z,53.90
2018-03-20T01:26:09.607Z,52.40
2018-03-20T01:28:43.780Z,53.10
2018-03-20T01:31:18.352Z,53.40
2018-03-20T01:33:53.006Z,53.40
2018-03-20T01:36:27.373Z,53.50
2018-03-20T01:39:01.648Z,53.20
2018-03-20T01:41:36.171Z,54.00
2018-03-20T01:44:10.088Z,56.10
2018-03-20T01:46:44.632Z,56.20
2018-03-20T01:49:18.867Z,56.00
2018-03-20T01:51:53.009Z,56.40
2018-03-20T01:54:27.134Z,57.50
2018-03-20T01:57:01.351Z,58.20
2018-03-20T01:59:35.308Z,58.60
2018-03-20T02:02:09.984Z,59.90
2018-03-20T02:04:44.134Z,60.30
2018-03-20T02:07:19.116Z,60.10
2018-03-20T02:09:53.254Z,60.30
2018-03-20T02:12:27.439Z,60.30
2018-03-20T02:15:02.018Z,59.90
2018-03-20T02:17:35.861Z,60.20
2018-03-20T02:20:10.420Z,66.40
2018-03-20T02:22:45.127Z,65.10
2018-03-20T02:25:19.811Z,66.90
2018-03-20T02:27:53.989Z,67.30
2018-03-20T02:30:28.113Z,66.60
2018-03-20T02:33:02.665Z,67.50
2018-03-20T02:35:36.953Z,69.50
2018-03-20T02:38:10.665Z,68.70
2018-03-20T02:40:44.606Z,68.40
2018-03-20T02:43:19.289Z,70.30
2018-03-20T02:45:53.279Z,68.70
2018-03-20T02:48:27.883Z,70.10
2018-03-20T02:51:01.922Z,69.60
2018-03-20T02:53:35.620Z,69.40
2018-03-20T02:56:09.539Z,69.60
2018-03-20T02:58:44.311Z,70.30
2018-03-20T03:01:18.667Z,71.30
2018-03-20T03:03:53.444Z,72.70
2018-03-20T03:06:27.632Z,73.10
2018-03-20T03:09:01.409Z,71.70
2018-03-20T03:11:35.377Z,72.00
2018-03-20T03:14:09.290Z,73.80
2018-03-20T03:16:43.402Z,75.90
2018-03-20T03:19:18.250Z,75.60
2018-03-20T03:21:52.305Z,77.80
2018-03-20T03:24:26.451Z,77.40
2018-03-20T03:27:00.850Z,76.80
2018-03-20T03:29:34.976Z,76.60
2018-03-20T03:32:09.283Z,76.80
2018-03-20T03:34:43.270Z,77.30
2018-03-20T03:37:17.784Z,79.00
2018-03-20T03:39:51.890Z,78.50
2018-03-20T03:42:25.941Z,80.30
2018-03-20T03:44:59.750Z,79.10
2018-03-20T03:47:33.621Z,79.60
2018-03-20T03:50:07.398Z,79.80
2018-03-20T03:52:41.260Z,79.60
2018-03-20T03:55:15.178Z,79.50
2018-03-20T03:57:48.919Z,80.10
2018-03-20T04:00:22.792Z,79.60
2018-03-20T04:02:57.316Z,79.80
2018-03-20T04:05:31.615Z,78.90
2018-03-20T04:08:06.295Z,78.90
2018-03-20T04:10:40.339Z,78.20
2018-03-20T04:13:14.554Z,77.90
2018-03-20T04:15:49.769Z,78.10
2018-03-20T04:18:23.912Z,78.20
2018-03-20T04:20:58.262Z,78.30
2018-03-20T04:23:32.777Z,78.10
2018-03-20T04:26:07.053Z,78.40
2018-03-20T04:28:41.811Z,78.70
2018-03-20T04:31:16.378Z,78.70
2018-03-20T04:33:50.428Z,78.30
2018-03-20T04:36:25.742Z,78.50
2018-03-20T04:39:00.292Z,78.60
2018-03-20T04:41:34.594Z,78.30
2018-03-20T04:44:08.757Z,78.60
2018-03-20T04:46:42.370Z,79.10
2018-03-20T04:49:16.544Z,79.10
2018-03-20T04:51:50.524Z,79.30
2018-03-20T04:54:24.578Z,79.80
2018-03-20T04:56:59.965Z,80.20
2018-03-20T04:59:33.725Z,79.80
2018-03-20T05:02:07.522Z,80.10
2018-03-20T05:04:41.319Z,80.30
2018-03-20T05:07:15.133Z,80.30
2018-03-20T05:09:50.258Z,80.90
2018-03-20T05:12:23.958Z,80.60
2018-03-20T05:14:57.851Z,80.50
2018-03-20T05:17:31.624Z,80.30
2018-03-20T05:23:30.626Z,80.90
2018-03-20T05:26:05.710Z,80.90
2018-03-20T05:28:40.306Z,81.40
2018-03-20T05:31:14.185Z,80.80
2018-03-20T05:33:48.740Z,81.20
2018-03-20T05:36:22.829Z,80.40
2018-03-20T05:38:56.518Z,80.50
2018-03-20T05:41:30.446Z,80.40
2018-03-20T05:44:04.145Z,80.60
2018-03-20T05:46:49.752Z,80.60
2018-03-20T05:52:29.952Z,82.80
2018-03-20T05:55:03.627Z,82.70
2018-03-20T05:57:37.385Z,85.30
2018-03-20T06:00:11.955Z,85.70
2018-03-20T06:02:46.001Z,85.50
2018-03-20T06:05:19.797Z,85.40
2018-03-20T06:07:53.640Z,85.50
2018-03-20T06:10:28.110Z,85.00
2018-03-20T06:13:01.977Z,85.00
2018-03-20T06:15:36.617Z,84.30
2018-03-20T06:18:10.514Z,84.30
2018-03-20T06:20:44.901Z,84.30
2018-03-20T06:23:18.827Z,84.30
2018-03-20T06:25:53.341Z,85.10
2018-03-20T06:28:27.055Z,85.10
2018-03-20T06:31:00.917Z,85.10
2018-03-20T06:33:34.621Z,85.90
2018-03-20T06:36:09.245Z,86.80
2018-03-20T06:38:43.264Z,86.80
2018-03-20T06:41:17.759Z,85.80
2018-03-20T06:43:51.748Z,85.70
2018-03-20T06:46:27.025Z,85.40
2018-03-20T06:49:01.587Z,85.20
2018-03-20T06:51:35.490Z,85.20
2018-03-20T06:54:10.110Z,85.30
2018-03-20T06:56:44.731Z,85.10
2018-03-20T06:59:19.319Z,85.10
2018-03-20T07:01:53.295Z,84.90
2018-03-20T07:04:27.221Z,84.80
2018-03-20T07:07:01.099Z,84.60
2018-03-20T07:09:34.968Z,84.70
2018-03-20T07:12:09.829Z,84.40
2018-03-20T07:14:44.333Z,83.40
2018-03-20T07:17:18.109Z,83.90
2018-03-20T07:19:52.021Z,83.10
2018-03-20T07:22:25.978Z,83.60
2018-03-20T07:24:59.606Z,83.40
2018-03-20T07:27:33.401Z,82.90
2018-03-20T07:30:07.180Z,82.90
2018-03-20T07:32:40.846Z,82.30
2018-03-20T07:35:15.278Z,81.70
2018-03-20T07:37:49.994Z,81.70
2018-03-20T07:40:23.882Z,81.70
2018-03-20T07:42:58.466Z,81.00
2018-03-20T07:45:32.168Z,80.80
2018-03-20T07:48:05.818Z,80.80
2018-03-20T07:50:39.618Z,80.50
2018-03-20T07:53:13.451Z,81.10
2018-03-20T07:55:48.000Z,79.40
2018-03-20T07:58:21.914Z,79.40
2018-03-20T08:00:55.916Z,78.60
2018-03-20T08:03:29.729Z,78.60
2018-03-20T08:06:03.631Z,78.40
2018-03-20T08:08:37.444Z,77.50
2018-03-20T08:11:11.134Z,78.50
2018-03-20T08:13:44.916Z,76.00
2018-03-20T08:16:19.544Z,74.90
2018-03-20T08:18:53.461Z,74.90
2018-03-20T08:21:27.847Z,74.10
2018-03-20T08:24:01.834Z,73.40
2018-03-20T08:26:36.416Z,71.60
2018-03-20T08:29:10.097Z,71.60
2018-03-20T08:31:43.894Z,71.00
2018-03-20T08:34:17.644Z,69.00
2018-03-20T08:36:52.134Z,68.20
2018-03-20T08:39:26.130Z,68.10
2018-03-20T08:41:59.883Z,66.40
2018-03-20T08:44:33.517Z,66.80
2018-03-20T08:47:07.294Z,61.80
2018-03-20T08:49:41.681Z,54.10
2018-03-20T08:52:15.770Z,54.00
2018-03-20T08:54:49.430Z,43.60
2018-03-20T08:57:23.177Z,41.90
2018-03-20T08:59:57.747Z,31.50
2018-03-20T09:02:31.483Z,31.30
2018-03-20T09:05:06.059Z,30.50
2018-03-20T09:07:40.042Z,30.40
2018-03-20T09:10:14.014Z,25.90
2018-03-20T09:12:47.773Z,23.80
2018-03-20T09:15:22.424Z,21.90
2018-03-20T09:17:56.191Z,21.60
2018-03-20T09:20:29.956Z,22.30
2018-03-20T09:23:03.583Z,22.20
2018-03-20T09:25:38.249Z,23.40
2018-03-20T09:28:12.151Z,24.10
2018-03-20T09:30:45.901Z,23.50
2018-03-20T09:33:19.650Z,22.50
2018-03-20T09:35:53.295Z,20.20
2018-03-20T09:38:27.893Z,18.20
2018-03-20T09:41:01.939Z,18.20
2018-03-20T09:43:35.589Z,17.30
2018-03-20T09:46:09.994Z,16.00
2018-03-20T09:48:43.997Z,16.00
2018-03-20T09:51:17.739Z,16.40
2018-03-20T09:53:51.512Z,17.60
2018-03-20T09:56:26.084Z,16.10
2018-03-20T09:58:59.932Z,16.30
2018-03-20T10:01:33.575Z,16.70
2018-03-20T10:04:07.357Z,17.50
2018-03-20T10:06:41.310Z,15.80
2018-03-20T10:09:15.785Z,14.80
2018-03-20T10:11:51.582Z,14.50
2018-03-20T10:14:25.339Z,14.50
2018-03-20T10:17:00.012Z,14.20
2018-03-20T10:19:34.145Z,14.20
2018-03-20T10:22:07.859Z,13.50
2018-03-20T10:24:42.418Z,13.20
2018-03-20T10:27:16.094Z,14.20
2018-03-20T10:29:49.910Z,14.00
2018-03-20T10:32:24.445Z,14.80
2018-03-20T10:34:58.520Z,14.80
2018-03-20T10:37:32.350Z,15.50
2018-03-20T10:40:06.228Z,15.90
2018-03-20T10:42:39.862Z,15.00
2018-03-20T10:45:13.698Z,14.50
2018-03-20T10:47:47.405Z,13.90
2018-03-20T10:50:22.031Z,15.50
2018-03-20T10:52:55.974Z,15.40
2018-03-20T10:55:29.671Z,16.00
2018-03-20T10:58:03.543Z,16.40
2018-03-20T11:03:43.422Z,17.10
2018-03-20T11:06:17.604Z,17.10
2018-03-20T11:08:51.422Z,15.90
2018-03-20T11:11:25.254Z,16.70
2018-03-20T11:13:58.918Z,17.20
2018-03-20T11:16:32.971Z,17.30
2018-03-20T11:19:06.689Z,17.40
2018-03-20T11:21:40.553Z,18.20
2018-03-20T11:24:14.624Z,18.00
2018-03-20T11:26:48.281Z,18.00
2018-03-20T11:29:22.207Z,17.40
2018-03-20T11:31:56.729Z,18.10
2018-03-20T11:34:30.562Z,17.40
2018-03-20T11:37:04.269Z,17.90
2018-03-20T11:39:38.847Z,17.10
2018-03-20T11:42:12.793Z,16.80
2018-03-20T11:44:46.410Z,17.60
2018-03-20T11:47:20.177Z,18.40
2018-03-20T11:49:53.852Z,17.50
2018-03-20T11:52:27.501Z,17.30
2018-03-20T11:55:01.150Z,17.30
2018-03-20T11:57:35.820Z,17.10
2018-03-20T12:00:10.504Z,16.80
2018-03-20T12:02:44.553Z,16.80
2018-03-20T12:05:18.225Z,17.10
2018-03-20T12:07:54.551Z,17.50
2018-03-20T12:10:28.695Z,17.10
2018-03-20T12:13:02.783Z,17.90
2018-03-20T12:15:37.233Z,18.70
2018-03-20T12:18:11.305Z,17.80
2018-03-20T12:20:45.160Z,18.00
2018-03-20T12:23:20.293Z,18.00
2018-03-20T12:25:54.553Z,18.40
2018-03-20T12:28:28.283Z,18.60
2018-03-20T12:31:02.032Z,18.20
2018-03-20T12:33:36.550Z,18.40
2018-03-20T12:36:10.411Z,18.40
2018-03-20T12:38:44.307Z,19.10
2018-03-20T12:41:18.031Z,18.70
2018-03-20T12:43:52.773Z,17.30
2018-03-20T12:46:26.980Z,17.90
2018-03-20T12:49:01.153Z,17.90
2018-03-20T12:51:35.771Z,18.90
2018-03-20T12:54:10.574Z,19.20
2018-03-20T12:56:44.621Z,19.20
2018-03-20T12:59:18.391Z,19.00
2018-03-20T13:01:52.194Z,19.20
2018-03-20T13:04:26.235Z,19.60
2018-03-20T13:07:00.799Z,19.20
2018-03-20T13:09:34.818Z,18.60
2018-03-20T13:12:08.642Z,18.90
2018-03-20T13:14:43.145Z,19.10
2018-03-20T13:17:17.311Z,18.20
2018-03-20T13:19:51.171Z,18.90
2018-03-20T13:22:24.941Z,19.00
2018-03-20T13:24:58.550Z,19.10
2018-03-20T13:27:32.442Z,19.20
2018-03-20T13:30:06.994Z,19.00
2018-03-20T13:32:41.678Z,19.80
2018-03-20T13:35:15.575Z,19.00
2018-03-20T13:37:49.211Z,19.10
2018-03-20T13:40:23.243Z,19.00
2018-03-20T13:42:56.879Z,19.30
2018-03-20T13:45:30.616Z,20.10
2018-03-20T13:48:04.398Z,20.40
2018-03-20T13:50:38.120Z,20.50
2018-03-20T13:53:23.479Z,20.60
2018-03-20T13:55:57.583Z,20.60
2018-03-20T13:58:31.398Z,19.90
2018-03-20T14:01:05.905Z,20.80
2018-03-20T14:03:39.990Z,20.80
2018-03-20T14:06:13.720Z,20.70
2018-03-20T14:08:47.363Z,20.50
2018-03-20T14:11:21.072Z,21.10
2018-03-20T14:13:54.795Z,20.30
2018-03-20T14:16:29.330Z,21.20
2018-03-20T14:19:03.534Z,20.80
2018-03-20T14:21:37.347Z,21.10
2018-03-20T14:24:11.888Z,22.60
2018-03-20T14:26:45.847Z,22.20
2018-03-20T14:29:20.210Z,23.10
2018-03-20T14:31:54.041Z,23.00
2018-03-20T14:34:27.631Z,24.70
2018-03-20T14:37:01.640Z,22.20
2018-03-20T14:39:35.410Z,21.30
2018-03-20T14:42:09.377Z,21.20
2018-03-20T14:44:43.980Z,21.30
2018-03-20T14:47:17.690Z,21.70
2018-03-20T14:49:51.543Z,22.20
2018-03-20T14:52:25.406Z,21.70
2018-03-20T14:54:59.002Z,22.20
2018-03-20T14:57:33.642Z,21.50
2018-03-20T15:00:07.353Z,21.90
2018-03-20T15:02:41.113Z,21.10
2018-03-20T15:05:14.947Z,20.70
2018-03-20T15:07:48.719Z,20.80
2018-03-20T15:10:22.450Z,21.80
2018-03-20T15:12:56.071Z,22.10
2018-03-20T15:15:29.838Z,22.40
2018-03-20T15:18:04.369Z,22.30
2018-03-20T15:20:38.430Z,22.20
2018-03-20T15:23:12.878Z,22.10
2018-03-20T15:25:47.102Z,21.60
2018-03-20T15:28:20.662Z,23.00
2018-03-20T15:30:55.157Z,22.90
2018-03-20T15:33:29.851Z,23.50
2018-03-20T15:36:03.812Z,23.50
2018-03-20T15:38:38.377Z,23.50
2018-03-20T15:41:12.599Z,23.50
2018-03-20T15:43:46.377Z,22.30
2018-03-20T15:46:20.016Z,23.40
2018-03-20T15:48:53.797Z,22.00
2018-03-20T15:51:27.730Z,21.90
2018-03-20T15:54:02.542Z,21.30
2018-03-20T15:56:36.405Z,21.80
2018-03-20T15:59:10.358Z,21.40
2018-03-20T16:01:43.986Z,21.80
2018-03-20T16:04:18.020Z,21.20
2018-03-20T16:06:52.597Z,23.90
2018-03-20T16:09:26.558Z,23.30
2018-03-20T16:12:00.558Z,23.20
2018-03-20T16:14:34.333Z,22.70
2018-03-20T16:17:08.071Z,22.30
2018-03-20T16:19:41.774Z,22.70
2018-03-20T16:22:15.617Z,23.10
2018-03-20T16:24:49.380Z,22.70
2018-03-20T16:27:23.163Z,23.10
2018-03-20T16:29:56.987Z,23.30
2018-03-20T16:32:30.794Z,23.60
2018-03-20T16:35:04.632Z,23.90
2018-03-20T16:37:39.196Z,24.50
2018-03-20T16:40:13.309Z,24.50
2018-03-20T16:42:47.065Z,23.30
2018-03-20T16:45:21.508Z,23.10
2018-03-20T16:47:55.393Z,23.70
2018-03-20T16:50:30.710Z,24.90
2018-03-20T16:53:04.804Z,24.90
2018-03-20T16:55:38.513Z,25.20
2018-03-20T16:58:13.018Z,26.70
2018-03-20T17:00:47.878Z,26.40
2018-03-20T17:03:21.878Z,25.80
2018-03-20T17:05:56.155Z,26.30
2018-03-20T17:08:31.297Z,25.90
2018-03-20T17:11:05.836Z,26.00
2018-03-20T17:13:40.459Z,26.70
2018-03-20T17:16:14.543Z,26.60
2018-03-20T17:18:49.583Z,26.70
2018-03-20T17:21:23.862Z,27.20
2018-03-20T17:23:59.484Z,27.70
2018-03-20T17:26:33.650Z,27.20
2018-03-20T17:29:08.136Z,27.60
2018-03-20T17:31:42.802Z,27.60
2018-03-20T17:34:17.752Z,28.20
2018-03-20T17:36:52.829Z,27.80
2018-03-20T17:39:27.936Z,28.70
2018-03-20T17:42:03.592Z,28.20
2018-03-20T17:44:37.726Z,27.80
2018-03-20T17:47:12.089Z,27.80
2018-03-20T17:49:48.077Z,27.80
2018-03-20T17:52:22.423Z,28.30
2018-03-20T17:54:56.148Z,28.20
2018-03-20T17:57:29.789Z,28.40
2018-03-20T18:00:03.431Z,28.80
2018-03-20T18:02:37.826Z,29.70
2018-03-20T18:05:11.648Z,29.10
2018-03-20T18:07:46.407Z,29.80
2018-03-20T18:10:20.265Z,29.60
2018-03-20T18:12:54.878Z,29.90
2018-03-20T18:15:29.495Z,29.40
2018-03-20T18:18:04.422Z,29.60
2018-03-20T18:20:40.258Z,30.00
2018-03-20T18:23:17.671Z,30.30
2018-03-20T18:25:54.632Z,30.00
2018-03-20T18:28:31.022Z,30.60
2018-03-20T18:31:06.882Z,30.80
2018-03-20T18:33:40.780Z,31.50
2018-03-20T18:36:14.531Z,32.50
2018-03-20T18:38:49.233Z,32.00
2018-03-20T18:41:23.518Z,30.90
2018-03-20T18:43:59.058Z,31.60
2018-03-20T18:46:32.683Z,31.50
2018-03-20T18:49:07.754Z,31.30
2018-03-20T18:51:42.441Z,31.80
2018-03-20T18:54:16.708Z,31.80
2018-03-20T18:56:52.182Z,32.90
2018-03-20T18:59:26.777Z,32.50
2018-03-20T19:02:00.550Z,32.50
2018-03-20T19:07:09.376Z,33.10
2018-03-20T19:09:43.598Z,33.00
2018-03-20T19:12:18.773Z,33.50
2018-03-20T19:14:54.145Z,34.00
2018-03-20T19:17:27.850Z,33.90
2018-03-20T19:20:01.793Z,34.20
2018-03-20T19:22:35.713Z,33.70
2018-03-20T19:25:09.354Z,33.70
2018-03-20T19:27:44.117Z,34.20
2018-03-20T19:30:19.098Z,34.80
2018-03-20T19:32:53.350Z,34.80
2018-03-20T19:35:27.402Z,34.40
2018-03-20T19:38:02.005Z,34.60
2018-03-20T19:40:36.937Z,34.60
2018-03-20T19:43:11.684Z,35.40
2018-03-20T19:45:45.518Z,34.70
2018-03-20T19:48:19.302Z,35.10
2018-03-20T19:50:53.198Z,35.50
2018-03-20T19:53:27.152Z,35.60
2018-03-20T19:56:00.996Z,35.80
2018-03-20T19:58:34.923Z,35.90
2018-03-20T20:01:08.883Z,36.10
2018-03-20T20:03:42.725Z,36.00
2018-03-20T20:06:17.361Z,36.70
2018-03-20T20:08:52.620Z,36.90
2018-03-20T20:11:26.449Z,36.90
2018-03-20T20:14:01.660Z,36.90
2018-03-20T20:16:36.481Z,37.20
2018-03-20T20:19:10.599Z,36.90
2018-03-20T20:21:45.332Z,36.80
2018-03-20T20:24:19.953Z,36.90
2018-03-20T20:26:53.993Z,36.80
2018-03-20T20:29:28.826Z,37.40
2018-03-20T20:32:03.022Z,37.40
2018-03-20T20:34:36.816Z,37.90
2018-03-20T20:37:10.726Z,37.50
2018-03-20T20:39:44.389Z,37.30
2018-03-20T20:42:18.258Z,37.70
2018-03-20T20:44:52.813Z,38.20
2018-03-20T20:47:27.494Z,37.70
2018-03-20T20:50:01.858Z,37.30
2018-03-20T20:52:35.590Z,37.50
2018-03-20T20:55:09.554Z,37.90
2018-03-20T20:57:43.354Z,37.90
2018-03-20T21:00:17.102Z,37.60
2018-03-20T21:02:50.811Z,38.40
2018-03-20T21:05:24.649Z,38.50
2018-03-20T21:07:58.570Z,38.40
2018-03-20T21:10:32.345Z,38.40
2018-03-20T21:13:06.413Z,38.50
2018-03-20T21:15:40.964Z,39.10
2018-03-20T21:18:15.914Z,38.60
2018-03-20T21:20:50.514Z,39.30
2018-03-20T21:23:25.103Z,38.90
2018-03-20T21:25:58.814Z,39.50
2018-03-20T21:28:32.821Z,39.10
2018-03-20T21:31:07.318Z,40.20
2018-03-20T21:33:41.077Z,40.60
2018-03-20T21:36:14.838Z,40.10
2018-03-20T21:38:48.599Z,40.40
2018-03-20T21:41:22.306Z,40.00
2018-03-20T21:43:56.116Z,40.60
2018-03-20T21:46:29.836Z,40.90
2018-03-20T21:49:04.340Z,41.10
2018-03-20T21:51:38.701Z,41.00
2018-03-20T21:54:12.493Z,41.50
2018-03-20T21:56:46.134Z,41.30
2018-03-20T21:59:20.760Z,42.30
2018-03-20T22:01:54.793Z,41.70
2018-03-20T22:04:28.374Z,41.70
2018-03-20T22:07:03.148Z,42.50
2018-03-20T22:09:37.288Z,42.50
2018-03-20T22:12:11.193Z,42.90
2018-03-20T22:14:45.705Z,43.00
2018-03-20T22:17:19.654Z,43.00
2018-03-20T22:19:53.367Z,42.80
2018-03-20T22:22:27.322Z,42.50
2018-03-20T22:25:01.169Z,42.70
2018-03-20T22:27:35.818Z,44.00
2018-03-20T22:30:09.775Z,44.00
2018-03-20T22:32:43.790Z,44.00
2018-03-20T22:35:18.550Z,44.10
2018-03-20T22:37:53.228Z,44.10
2018-03-20T22:40:27.626Z,44.40
2018-03-20T22:43:02.155Z,44.70
2018-03-20T22:45:36.170Z,43.80
2018-03-20T22:48:10.808Z,43.90
2018-03-20T22:50:45.554Z,43.90
2018-03-20T22:53:19.678Z,43.70
2018-03-20T22:55:53.551Z,43.90
2018-03-20T22:58:27.267Z,43.90
2018-03-20T23:01:02.573Z,44.60
2018-03-20T23:03:36.791Z,45.20
2018-03-20T23:06:11.179Z,45.20
2018-03-20T23:08:45.192Z,44.60
2018-03-20T23:11:18.853Z,44.70
2018-03-20T23:13:52.873Z,44.70
2018-03-20T23:16:26.680Z,46.00
2018-03-20T23:21:39.316Z,46.60
2018-03-20T23:24:13.059Z,45.20
2018-03-20T23:26:46.753Z,45.60
2018-03-20T23:29:20.359Z,47.00
2018-03-20T23:31:54.377Z,48.10
2018-03-20T23:34:28.889Z,48.20
2018-03-20T23:37:03.573Z,48.10
2018-03-20T23:39:37.248Z,48.40
2018-03-20T23:42:11.119Z,48.70
2018-03-20T23:44:44.831Z,49.20
2018-03-20T23:47:18.748Z,49.40
2018-03-20T23:49:53.961Z,50.10
2018-03-20T23:52:28.044Z,49.00
2018-03-20T23:55:01.699Z,49.50
2018-03-20T23:57:36.231Z,50.40
